sensor_id;sensor_type;location;lat;lon;timestamp;pressure;altitude;pressure_sealevel;temperature;humidity
68889;BME280;55930;47.412;8.790;2022-08-02T00:00:18;94938.00;;;17.44;100.00
68889;BME280;55930;47.412;8.790;2022-08-02T00:02:45;94932.19;;;17.40;100.00
68889;BME280;55930;47.412;8.790;2022-08-02T00:05:12;94941.16;;;17.42;100.00
68889;BME280;55930;47.412;8.790;2022-08-02T00:07:38;94936.75;;;17.50;100.00
68889;BME280;55930;47.412;8.790;2022-08-02T00:10:05;94938.50;;;17.37;100.00
68889;BME280;55930;47.412;8.790;2022-08-02T00:12:31;94939.03;;;17.24;100.00
68889;BME280;55930;47.412;8.790;2022-08-02T00:14:57;94934.41;;;17.25;100.00
68889;BME280;55930;47.412;8.790;2022-08-02T00:17:22;94935.91;;;17.14;100.00
68889;BME280;55930;47.412;8.790;2022-08-02T00:19:48;94934.19;;;17.17;100.00
68889;BME280;55930;47.412;8.790;2022-08-02T00:22:13;94931.53;;;17.06;100.00
68889;BME280;55930;47.412;8.790;2022-08-02T00:24:38;94930.31;;;17.01;100.00
68889;BME280;55930;47.412;8.790;2022-08-02T00:27:04;94927.91;;;16.98;100.00
68889;BME280;55930;47.412;8.790;2022-08-02T00:29:33;94928.88;;;17.06;100.00
68889;BME280;55930;47.412;8.790;2022-08-02T00:31:58;94932.78;;;16.88;100.00
68889;BME280;55930;47.412;8.790;2022-08-02T00:34:23;94935.25;;;16.75;100.00
68889;BME280;55930;47.412;8.790;2022-08-02T00:36:49;94928.41;;;16.79;100.00
68889;BME280;55930;47.412;8.790;2022-08-02T00:39:15;94929.38;;;16.76;100.00
68889;BME280;55930;47.412;8.790;2022-08-02T00:41:48;94929.91;;;16.75;100.00
68889;BME280;55930;47.412;8.790;2022-08-02T00:44:18;94931.09;;;16.68;100.00
68889;BME280;55930;47.412;8.790;2022-08-02T00:46:45;94916.50;;;16.69;100.00
68889;BME280;55930;47.412;8.790;2022-08-02T00:49:11;94911.66;;;16.68;100.00
68889;BME280;55930;47.412;8.790;2022-08-02T00:51:38;94914.28;;;16.57;100.00
68889;BME280;55930;47.412;8.790;2022-08-02T00:54:04;94914.78;;;16.61;100.00
68889;BME280;55930;47.412;8.790;2022-08-02T00:56:32;94914.28;;;16.57;100.00
68889;BME280;55930;47.412;8.790;2022-08-02T00:59:00;94913.81;;;16.53;100.00
68889;BME280;55930;47.412;8.790;2022-08-02T01:01:26;94906.28;;;16.51;100.00
68889;BME280;55930;47.412;8.790;2022-08-02T01:04:05;94902.13;;;16.39;100.00
68889;BME280;55930;47.412;8.790;2022-08-02T01:06:31;94894.09;;;16.50;100.00
68889;BME280;55930;47.412;8.790;2022-08-02T01:09:00;94899.19;;;16.54;100.00
68889;BME280;55930;47.412;8.790;2022-08-02T01:11:27;94899.94;;;16.49;100.00
68889;BME280;55930;47.412;8.790;2022-08-02T01:13:56;94889.00;;;16.35;100.00
68889;BME280;55930;47.412;8.790;2022-08-02T01:16:25;94890.44;;;16.31;100.00
68889;BME280;55930;47.412;8.790;2022-08-02T01:18:53;94887.53;;;16.23;100.00
68889;BME280;55930;47.412;8.790;2022-08-02T01:21:31;94890.22;;;16.18;100.00
68889;BME280;55930;47.412;8.790;2022-08-02T01:24:15;94889.72;;;16.30;100.00
68889;BME280;55930;47.412;8.790;2022-08-02T01:31:48;94894.84;;;16.12;100.00
68889;BME280;55930;47.412;8.790;2022-08-02T01:36:45;94898.47;;;16.08;100.00
68889;BME280;55930;47.412;8.790;2022-08-02T01:39:14;94898.94;;;16.13;100.00
68889;BME280;55930;47.412;8.790;2022-08-02T01:41:42;94894.34;;;16.13;100.00
68889;BME280;55930;47.412;8.790;2022-08-02T01:44:11;94889.72;;;16.25;100.00
68889;BME280;55930;47.412;8.790;2022-08-02T01:46:38;94887.28;;;16.16;100.00
68889;BME280;55930;47.412;8.790;2022-08-02T01:49:09;94886.28;;;15.91;100.00
68889;BME280;55930;47.412;8.790;2022-08-02T01:51:36;94889.94;;;15.99;100.00
68889;BME280;55930;47.412;8.790;2022-08-02T01:54:24;94885.09;;;15.86;100.00
68889;BME280;55930;47.412;8.790;2022-08-02T01:56:53;94886.28;;;15.96;100.00
68889;BME280;55930;47.412;8.790;2022-08-02T01:59:22;94884.84;;;15.95;100.00
68889;BME280;55930;47.412;8.790;2022-08-02T02:01:49;94883.13;;;15.87;100.00
68889;BME280;55930;47.412;8.790;2022-08-02T02:04:16;94882.63;;;15.83;100.00
68889;BME280;55930;47.412;8.790;2022-08-02T02:06:45;94882.13;;;15.67;100.00
68889;BME280;55930;47.412;8.790;2022-08-02T02:09:13;94887.00;;;15.75;100.00
68889;BME280;55930;47.412;8.790;2022-08-02T02:11:41;94876.78;;;15.67;100.00
68889;BME280;55930;47.412;8.790;2022-08-02T02:14:10;94883.09;;;15.70;100.00
68889;BME280;55930;47.412;8.790;2022-08-02T02:16:37;94890.88;;;15.62;100.00
68889;BME280;55930;47.412;8.790;2022-08-02T02:19:08;94886.00;;;15.61;100.00
68889;BME280;55930;47.412;8.790;2022-08-02T02:21:33;94887.94;;;15.60;100.00
68889;BME280;55930;47.412;8.790;2022-08-02T02:23:59;94885.00;;;15.58;100.00
68889;BME280;55930;47.412;8.790;2022-08-02T02:26:26;94880.66;;;15.55;100.00
68889;BME280;55930;47.412;8.790;2022-08-02T02:28:54;94885.00;;;15.58;100.00
68889;BME280;55930;47.412;8.790;2022-08-02T02:31:23;94886.97;;;15.58;100.00
68889;BME280;55930;47.412;8.790;2022-08-02T02:33:54;94875.31;;;15.55;100.00
68889;BME280;55930;47.412;8.790;2022-08-02T02:36:24;94874.28;;;15.53;100.00
68889;BME280;55930;47.412;8.790;2022-08-02T02:38:51;94868.47;;;15.54;100.00
68889;BME280;55930;47.412;8.790;2022-08-02T02:41:19;94869.16;;;15.44;100.00
68889;BME280;55930;47.412;8.790;2022-08-02T02:43:46;94866.00;;;15.45;100.00
68889;BME280;55930;47.412;8.790;2022-08-02T02:46:12;94867.47;;;15.46;100.00
68889;BME280;55930;47.412;8.790;2022-08-02T02:48:38;94870.69;;;15.56;100.00
68889;BME280;55930;47.412;8.790;2022-08-02T02:51:05;94879.13;;;15.49;100.00
68889;BME280;55930;47.412;8.790;2022-08-02T02:53:31;94871.81;;;15.38;100.00
68889;BME280;55930;47.412;8.790;2022-08-02T02:55:59;94877.63;;;15.37;100.00
68889;BME280;55930;47.412;8.790;2022-08-02T02:58:28;94873.28;;;15.39;100.00
68889;BME280;55930;47.412;8.790;2022-08-02T03:00:54;94864.47;;;15.27;100.00
68889;BME280;55930;47.412;8.790;2022-08-02T03:03:38;94860.13;;;15.30;100.00
68889;BME280;55930;47.412;8.790;2022-08-02T03:06:04;94861.81;;;15.27;100.00
68889;BME280;55930;47.412;8.790;2022-08-02T03:08:30;94860.34;;;15.26;100.00
68889;BME280;55930;47.412;8.790;2022-08-02T03:10:56;94856.94;;;15.26;100.00
68889;BME280;55930;47.412;8.790;2022-08-02T03:13:22;94853.78;;;15.16;100.00
68889;BME280;55930;47.412;8.790;2022-08-02T03:15:50;94857.88;;;15.17;100.00
68889;BME280;55930;47.412;8.790;2022-08-02T03:18:35;94852.53;;;15.17;100.00
68889;BME280;55930;47.412;8.790;2022-08-02T03:21:04;94856.94;;;15.20;100.00
68889;BME280;55930;47.412;8.790;2022-08-02T03:23:30;94853.78;;;15.27;100.00
68889;BME280;55930;47.412;8.790;2022-08-02T03:25:55;94846.97;;;15.21;100.00
68889;BME280;55930;47.412;8.790;2022-08-02T03:28:21;94844.75;;;15.14;100.00
68889;BME280;55930;47.412;8.790;2022-08-02T03:30:47;94850.38;;;15.21;100.00
68889;BME280;55930;47.412;8.790;2022-08-02T03:33:12;94853.00;;;15.10;100.00
68889;BME280;55930;47.412;8.790;2022-08-02T03:35:40;94848.16;;;15.14;100.00
68889;BME280;55930;47.412;8.790;2022-08-02T03:38:06;94847.19;;;15.12;100.00
68889;BME280;55930;47.412;8.790;2022-08-02T03:40:32;94848.59;;;15.02;100.00
68889;BME280;55930;47.412;8.790;2022-08-02T03:42:58;94844.69;;;14.97;100.00
68889;BME280;55930;47.412;8.790;2022-08-02T03:45:26;94845.16;;;14.96;100.00
68889;BME280;55930;47.412;8.790;2022-08-02T03:47:54;94839.63;;;14.99;100.00
68889;BME280;55930;47.412;8.790;2022-08-02T03:50:20;94849.75;;;14.84;100.00
68889;BME280;55930;47.412;8.790;2022-08-02T03:52:49;94841.03;;;14.89;100.00
68889;BME280;55930;47.412;8.790;2022-08-02T03:55:15;94836.41;;;14.84;100.00
68889;BME280;55930;47.412;8.790;2022-08-02T03:57:41;94830.81;;;14.87;100.00
68889;BME280;55930;47.412;8.790;2022-08-02T04:00:11;94836.66;;;14.91;100.00
68889;BME280;55930;47.412;8.790;2022-08-02T04:02:39;94834.41;;;14.79;100.00
68889;BME280;55930;47.412;8.790;2022-08-02T04:05:05;94833.19;;;14.80;100.00
68889;BME280;55930;47.412;8.790;2022-08-02T04:07:30;94834.19;;;14.82;100.00
68889;BME280;55930;47.412;8.790;2022-08-02T04:09:56;94835.41;;;14.81;100.00
68889;BME280;55930;47.412;8.790;2022-08-02T04:12:23;94831.53;;;14.82;100.00
68889;BME280;55930;47.412;8.790;2022-08-02T04:14:49;94839.34;;;14.97;100.00
68889;BME280;55930;47.412;8.790;2022-08-02T04:17:19;94841.75;;;14.89;100.00
68889;BME280;55930;47.412;8.790;2022-08-02T04:20:00;94844.19;;;14.93;100.00
68889;BME280;55930;47.412;8.790;2022-08-02T04:23:19;94838.41;;;15.06;100.00
68889;BME280;55930;47.412;8.790;2022-08-02T04:25:21;94847.81;;;14.84;100.00
68889;BME280;55930;47.412;8.790;2022-08-02T04:27:47;94848.09;;;14.92;100.00
68889;BME280;55930;47.412;8.790;2022-08-02T04:30:17;94848.09;;;14.98;100.00
68889;BME280;55930;47.412;8.790;2022-08-02T04:32:43;94860.78;;;15.08;100.00
68889;BME280;55930;47.412;8.790;2022-08-02T04:35:09;94859.63;;;15.26;100.00
68889;BME280;55930;47.412;8.790;2022-08-02T04:37:36;94866.41;;;15.16;100.00
68889;BME280;55930;47.412;8.790;2022-08-02T04:40:09;94866.16;;;15.25;100.00
68889;BME280;55930;47.412;8.790;2022-08-02T04:42:35;94869.81;;;15.27;100.00
68889;BME280;55930;47.412;8.790;2022-08-02T04:45:00;94875.91;;;15.28;100.00
68889;BME280;55930;47.412;8.790;2022-08-02T04:47:27;94879.38;;;15.40;100.00
68889;BME280;55930;47.412;8.790;2022-08-02T04:49:55;94879.38;;;15.40;100.00
68889;BME280;55930;47.412;8.790;2022-08-02T04:52:20;94878.16;;;15.52;100.00
68889;BME280;55930;47.412;8.790;2022-08-02T04:54:45;94880.13;;;15.57;100.00
68889;BME280;55930;47.412;8.790;2022-08-02T04:57:11;94883.31;;;15.61;100.00
68889;BME280;55930;47.412;8.790;2022-08-02T04:59:55;94882.63;;;15.83;100.00
68889;BME280;55930;47.412;8.790;2022-08-02T05:02:21;94881.41;;;15.89;100.00
68889;BME280;55930;47.412;8.790;2022-08-02T05:04:46;94881.91;;;15.99;100.00
68889;BME280;55930;47.412;8.790;2022-08-02T05:07:15;94892.91;;;16.12;98.78
68889;BME280;55930;47.412;8.790;2022-08-02T05:09:41;94893.13;;;16.31;98.10
68889;BME280;55930;47.412;8.790;2022-08-02T05:12:06;94896.31;;;16.35;99.39
68889;BME280;55930;47.412;8.790;2022-08-02T05:14:32;94891.66;;;16.41;98.80
68889;BME280;55930;47.412;8.790;2022-08-02T05:16:57;94888.50;;;16.48;99.32
68889;BME280;55930;47.412;8.790;2022-08-02T05:19:23;94889.72;;;16.58;98.69
68889;BME280;55930;47.412;8.790;2022-08-02T05:21:48;94887.97;;;16.89;97.20
68889;BME280;55930;47.412;8.790;2022-08-02T05:24:14;94882.06;;;17.01;96.42
68889;BME280;55930;47.412;8.790;2022-08-02T05:26:39;94884.56;;;16.88;96.35
68889;BME280;55930;47.412;8.790;2022-08-02T05:29:04;94882.88;;;16.68;97.71
68889;BME280;55930;47.412;8.790;2022-08-02T05:31:31;94888.72;;;16.72;97.18
68889;BME280;55930;47.412;8.790;2022-08-02T05:33:56;94883.34;;;16.89;96.07
68889;BME280;55930;47.412;8.790;2022-08-02T05:36:24;94884.81;;;16.90;95.03
68889;BME280;55930;47.412;8.790;2022-08-02T05:38:49;94881.63;;;16.86;94.77
68889;BME280;55930;47.412;8.790;2022-08-02T05:41:19;94878.38;;;17.21;94.13
68889;BME280;55930;47.412;8.790;2022-08-02T05:43:45;94879.50;;;17.37;92.75
68889;BME280;55930;47.412;8.790;2022-08-02T05:46:14;94878.75;;;17.42;94.03
68889;BME280;55930;47.412;8.790;2022-08-02T05:48:39;94876.84;;;17.37;93.72
68889;BME280;55930;47.412;8.790;2022-08-02T05:51:10;94883.84;;;17.51;94.04
68889;BME280;55930;47.412;8.790;2022-08-02T05:56:23;94883.19;;;17.80;92.08
68889;BME280;55930;47.412;8.790;2022-08-02T05:58:52;94886.25;;;18.31;90.38
68889;BME280;55930;47.412;8.790;2022-08-02T06:01:42;94887.03;;;18.56;86.53
68889;BME280;55930;47.412;8.790;2022-08-02T06:04:22;94890.47;;;18.26;89.46
68889;BME280;55930;47.412;8.790;2022-08-02T06:06:54;94887.97;;;18.64;85.89
68889;BME280;55930;47.412;8.790;2022-08-02T06:09:19;94885.78;;;18.32;87.22
68889;BME280;55930;47.412;8.790;2022-08-02T06:11:50;94897.59;;;18.48;88.74
68889;BME280;55930;47.412;8.790;2022-08-02T06:14:17;94893.06;;;18.92;87.50
68889;BME280;55930;47.412;8.790;2022-08-02T06:16:43;94893.00;;;19.40;85.02
68889;BME280;55930;47.412;8.790;2022-08-02T06:19:12;94893.63;;;19.52;84.57
68889;BME280;55930;47.412;8.790;2022-08-02T06:21:41;94890.81;;;19.63;84.40
68889;BME280;55930;47.412;8.790;2022-08-02T06:24:11;94890.69;;;20.06;83.74
68889;BME280;55930;47.412;8.790;2022-08-02T06:26:37;94890.81;;;20.14;81.95
68889;BME280;55930;47.412;8.790;2022-08-02T06:29:04;94888.22;;;20.08;84.43
68889;BME280;55930;47.412;8.790;2022-08-02T06:31:29;94884.34;;;20.81;80.74
68889;BME280;55930;47.412;8.790;2022-08-02T06:33:55;94882.78;;;20.59;81.33
68889;BME280;55930;47.412;8.790;2022-08-02T06:36:28;94880.09;;;20.85;79.66
68889;BME280;55930;47.412;8.790;2022-08-02T06:41:30;94890.94;;;21.72;74.50
68889;BME280;55930;47.412;8.790;2022-08-02T06:44:03;94890.44;;;21.60;75.50
68889;BME280;55930;47.412;8.790;2022-08-02T06:46:29;94897.13;;;21.46;77.04
68889;BME280;55930;47.412;8.790;2022-08-02T06:48:55;94896.78;;;21.63;70.67
68889;BME280;55930;47.412;8.790;2022-08-02T06:51:21;94894.31;;;21.52;71.79
68889;BME280;55930;47.412;8.790;2022-08-02T06:53:47;94887.56;;;21.92;71.48
68889;BME280;55930;47.412;8.790;2022-08-02T06:56:13;94892.44;;;21.94;71.54
68889;BME280;55930;47.412;8.790;2022-08-02T06:58:39;94887.78;;;22.36;72.29
68889;BME280;55930;47.412;8.790;2022-08-02T07:01:05;94884.81;;;22.88;69.77
68889;BME280;55930;47.412;8.790;2022-08-02T07:06:07;94888.31;;;23.40;66.39
68889;BME280;55930;47.412;8.790;2022-08-02T07:08:38;94884.31;;;23.62;67.60
68889;BME280;55930;47.412;8.790;2022-08-02T07:11:04;94886.06;;;23.52;67.84
68889;BME280;55930;47.412;8.790;2022-08-02T07:13:30;94891.53;;;24.26;64.90
68889;BME280;55930;47.412;8.790;2022-08-02T07:15:56;94892.63;;;24.46;62.25
68889;BME280;55930;47.412;8.790;2022-08-02T07:18:22;94889.00;;;24.35;64.97
68889;BME280;55930;47.412;8.790;2022-08-02T07:20:48;94890.00;;;24.02;64.48
68889;BME280;55930;47.412;8.790;2022-08-02T07:23:16;94896.72;;;23.57;64.40
68889;BME280;55930;47.412;8.790;2022-08-02T07:25:43;94890.69;;;23.95;65.72
68889;BME280;55930;47.412;8.790;2022-08-02T07:28:09;94891.28;;;24.09;64.53
68889;BME280;55930;47.412;8.790;2022-08-02T07:30:35;94894.69;;;23.86;66.53
68889;BME280;55930;47.412;8.790;2022-08-02T07:33:01;94898.59;;;24.90;61.27
68889;BME280;55930;47.412;8.790;2022-08-02T07:35:27;94890.25;;;24.34;64.20
68889;BME280;55930;47.412;8.790;2022-08-02T07:37:53;94889.34;;;24.24;64.97
68889;BME280;55930;47.412;8.790;2022-08-02T07:40:19;94899.66;;;25.09;62.98
68889;BME280;55930;47.412;8.790;2022-08-02T07:42:49;94901.84;;;24.96;62.16
68889;BME280;55930;47.412;8.790;2022-08-02T07:45:16;94898.75;;;25.07;59.73
68889;BME280;55930;47.412;8.790;2022-08-02T07:47:42;94892.94;;;25.10;59.58
68889;BME280;55930;47.412;8.790;2022-08-02T07:50:09;94894.78;;;24.85;60.89
68889;BME280;55930;47.412;8.790;2022-08-02T07:52:36;94888.53;;;25.30;60.78
68889;BME280;55930;47.412;8.790;2022-08-02T07:55:02;94882.31;;;25.60;59.17
68889;BME280;55930;47.412;8.790;2022-08-02T07:57:27;94874.28;;;25.30;60.36
68889;BME280;55930;47.412;8.790;2022-08-02T07:59:53;94883.75;;;25.69;62.02
68889;BME280;55930;47.412;8.790;2022-08-02T08:02:18;94884.31;;;26.00;60.30
68889;BME280;55930;47.412;8.790;2022-08-02T08:04:43;94882.91;;;25.91;57.96
68889;BME280;55930;47.412;8.790;2022-08-02T08:07:09;94889.16;;;26.09;58.20
68889;BME280;55930;47.412;8.790;2022-08-02T08:09:38;94886.34;;;26.74;57.45
68889;BME280;55930;47.412;8.790;2022-08-02T08:12:10;94887.16;;;26.84;54.81
68889;BME280;55930;47.412;8.790;2022-08-02T08:14:37;94886.13;;;26.54;54.56
68889;BME280;55930;47.412;8.790;2022-08-02T08:17:06;94892.50;;;26.74;55.95
68889;BME280;55930;47.412;8.790;2022-08-02T08:19:32;94892.09;;;27.37;52.04
68889;BME280;55930;47.412;8.790;2022-08-02T08:21:58;94888.47;;;28.86;48.37
68889;BME280;55930;47.412;8.790;2022-08-02T08:24:29;94891.06;;;30.09;45.85
68889;BME280;55930;47.412;8.790;2022-08-02T08:26:55;94879.09;;;31.07;42.13
68889;BME280;55930;47.412;8.790;2022-08-02T08:29:21;94884.78;;;31.53;42.42
68889;BME280;55930;47.412;8.790;2022-08-02T08:31:47;94886.34;;;31.24;42.64
68889;BME280;55930;47.412;8.790;2022-08-02T08:34:13;94884.88;;;31.65;42.23
68889;BME280;55930;47.412;8.790;2022-08-02T08:36:39;94885.03;;;30.41;42.20
68889;BME280;55930;47.412;8.790;2022-08-02T08:39:04;94883.31;;;30.98;43.18
68889;BME280;55930;47.412;8.790;2022-08-02T08:41:30;94885.75;;;31.25;40.21
68889;BME280;55930;47.412;8.790;2022-08-02T08:43:55;94877.16;;;29.57;42.89
68889;BME280;55930;47.412;8.790;2022-08-02T08:46:28;94882.47;;;29.16;45.22
68889;BME280;55930;47.412;8.790;2022-08-02T08:49:00;94895.53;;;28.52;47.25
68889;BME280;55930;47.412;8.790;2022-08-02T08:51:41;94884.78;;;29.20;47.31
68889;BME280;55930;47.412;8.790;2022-08-02T08:54:09;94875.16;;;29.57;43.47
68889;BME280;55930;47.412;8.790;2022-08-02T08:56:42;94877.63;;;30.23;43.81
68889;BME280;55930;47.412;8.790;2022-08-02T08:59:07;94880.06;;;30.19;43.15
68889;BME280;55930;47.412;8.790;2022-08-02T09:01:33;94873.44;;;32.25;40.33
68889;BME280;55930;47.412;8.790;2022-08-02T09:03:59;94883.94;;;31.72;40.08
68889;BME280;55930;47.412;8.790;2022-08-02T09:06:27;94880.75;;;29.50;44.57
68889;BME280;55930;47.412;8.790;2022-08-02T09:08:53;94887.31;;;28.79;44.71
68889;BME280;55930;47.412;8.790;2022-08-02T09:11:23;94890.47;;;30.11;42.36
68889;BME280;55930;47.412;8.790;2022-08-02T09:13:54;94886.56;;;30.23;41.43
68889;BME280;55930;47.412;8.790;2022-08-02T09:16:39;94876.59;;;30.90;39.95
68889;BME280;55930;47.412;8.790;2022-08-02T09:21:47;94875.34;;;31.02;41.97
68889;BME280;55930;47.412;8.790;2022-08-02T09:24:22;94878.63;;;31.32;38.95
68889;BME280;55930;47.412;8.790;2022-08-02T09:26:49;94881.75;;;32.04;36.87
68889;BME280;55930;47.412;8.790;2022-08-02T09:29:15;94885.16;;;32.60;35.20
68889;BME280;55930;47.412;8.790;2022-08-02T09:31:41;94875.94;;;30.79;39.80
68889;BME280;55930;47.412;8.790;2022-08-02T09:34:06;94882.97;;;34.05;36.04
68889;BME280;55930;47.412;8.790;2022-08-02T09:36:38;94883.38;;;33.37;35.43
68889;BME280;55930;47.412;8.790;2022-08-02T09:39:10;94877.81;;;34.25;35.83
68889;BME280;55930;47.412;8.790;2022-08-02T09:41:38;94875.63;;;34.09;32.62
68889;BME280;55930;47.412;8.790;2022-08-02T09:44:07;94880.44;;;33.10;34.20
68889;BME280;55930;47.412;8.790;2022-08-02T09:49:07;94873.50;;;34.88;31.91
68889;BME280;55930;47.412;8.790;2022-08-02T09:51:35;94877.13;;;35.34;32.10
68889;BME280;55930;47.412;8.790;2022-08-02T09:54:04;94877.75;;;35.05;33.78
68889;BME280;55930;47.412;8.790;2022-08-02T09:57:02;94872.56;;;35.69;30.82
68889;BME280;55930;47.412;8.790;2022-08-02T09:59:28;94875.31;;;35.83;31.73
68889;BME280;55930;47.412;8.790;2022-08-02T10:01:54;94865.38;;;35.19;30.73
68889;BME280;55930;47.412;8.790;2022-08-02T10:04:25;94860.66;;;36.26;30.39
68889;BME280;55930;47.412;8.790;2022-08-02T10:06:52;94859.50;;;35.99;31.94
68889;BME280;55930;47.412;8.790;2022-08-02T10:09:20;94860.94;;;36.48;29.58
68889;BME280;55930;47.412;8.790;2022-08-02T10:11:47;94860.66;;;35.22;31.09
68889;BME280;55930;47.412;8.790;2022-08-02T10:14:13;94859.84;;;35.33;31.98
68889;BME280;55930;47.412;8.790;2022-08-02T10:16:40;94859.13;;;35.19;32.15
68889;BME280;55930;47.412;8.790;2022-08-02T10:19:07;94860.75;;;35.67;31.30
68889;BME280;55930;47.412;8.790;2022-08-02T10:24:09;94852.91;;;36.07;33.62
68889;BME280;55930;47.412;8.790;2022-08-02T10:26:38;94852.00;;;35.00;31.32
68889;BME280;55930;47.412;8.790;2022-08-02T10:29:03;94848.75;;;34.49;30.29
68889;BME280;55930;47.412;8.790;2022-08-02T10:31:38;94847.72;;;33.39;34.82
68889;BME280;55930;47.412;8.790;2022-08-02T10:34:10;94842.94;;;33.02;35.55
68889;BME280;55930;47.412;8.790;2022-08-02T10:36:40;94832.03;;;32.33;35.11
68889;BME280;55930;47.412;8.790;2022-08-02T10:39:06;94833.91;;;32.77;34.50
68889;BME280;55930;47.412;8.790;2022-08-02T10:44:37;94829.59;;;33.98;34.14
68889;BME280;55930;47.412;8.790;2022-08-02T10:47:24;94827.09;;;34.16;37.05
68889;BME280;55930;47.412;8.790;2022-08-02T10:49:57;94819.75;;;34.34;33.92
68889;BME280;55930;47.412;8.790;2022-08-02T10:52:29;94829.63;;;35.51;31.09
68889;BME280;55930;47.412;8.790;2022-08-02T10:55:09;94825.19;;;36.20;29.20
68889;BME280;55930;47.412;8.790;2022-08-02T10:57:35;94825.53;;;35.81;29.82
68889;BME280;55930;47.412;8.790;2022-08-02T11:00:10;94831.94;;;37.49;27.01
68889;BME280;55930;47.412;8.790;2022-08-02T11:02:44;94821.59;;;36.49;30.16
68889;BME280;55930;47.412;8.790;2022-08-02T11:05:26;94832.63;;;36.80;30.37
68889;BME280;55930;47.412;8.790;2022-08-02T11:07:52;94821.16;;;36.55;28.59
68889;BME280;55930;47.412;8.790;2022-08-02T11:15:49;94822.19;;;38.21;26.08
68889;BME280;55930;47.412;8.790;2022-08-02T11:18:18;94822.88;;;36.46;27.53
68889;BME280;55930;47.412;8.790;2022-08-02T11:20:44;94822.28;;;38.23;26.80
68889;BME280;55930;47.412;8.790;2022-08-02T11:23:34;94821.72;;;37.36;29.93
68889;BME280;55930;47.412;8.790;2022-08-02T11:28:59;94815.56;;;36.05;28.67
68889;BME280;55930;47.412;8.790;2022-08-02T11:31:25;94805.69;;;35.12;30.29
68889;BME280;55930;47.412;8.790;2022-08-02T11:33:53;94807.34;;;36.55;29.09
68889;BME280;55930;47.412;8.790;2022-08-02T11:36:21;94801.41;;;38.42;25.14
68889;BME280;55930;47.412;8.790;2022-08-02T11:38:46;94804.59;;;39.59;25.16
68889;BME280;55930;47.412;8.790;2022-08-02T11:41:19;94806.19;;;38.19;24.88
68889;BME280;55930;47.412;8.790;2022-08-02T11:43:45;94798.94;;;37.92;24.84
68889;BME280;55930;47.412;8.790;2022-08-02T11:46:13;94796.84;;;36.85;25.30
68889;BME280;55930;47.412;8.790;2022-08-02T11:48:40;94802.06;;;38.20;24.40
68889;BME280;55930;47.412;8.790;2022-08-02T11:51:14;94795.63;;;37.23;26.24
68889;BME280;55930;47.412;8.790;2022-08-02T11:53:44;94793.97;;;38.66;24.23
68889;BME280;55930;47.412;8.790;2022-08-02T11:56:11;94787.50;;;39.01;24.60
68889;BME280;55930;47.412;8.790;2022-08-02T11:58:37;94792.06;;;37.93;25.50
68889;BME280;55930;47.412;8.790;2022-08-02T12:01:03;94781.25;;;38.81;24.17
68889;BME280;55930;47.412;8.790;2022-08-02T12:03:37;94791.91;;;37.34;24.87
68889;BME280;55930;47.412;8.790;2022-08-02T12:06:04;94798.72;;;37.67;25.36
68889;BME280;55930;47.412;8.790;2022-08-02T12:08:36;94792.19;;;37.78;24.79
68889;BME280;55930;47.412;8.790;2022-08-02T12:11:01;94789.94;;;39.13;23.99
68889;BME280;55930;47.412;8.790;2022-08-02T12:13:29;94796.25;;;38.12;24.61
68889;BME280;55930;47.412;8.790;2022-08-02T12:16:09;94784.59;;;39.19;24.90
68889;BME280;55930;47.412;8.790;2022-08-02T12:18:55;94785.38;;;39.67;23.45
68889;BME280;55930;47.412;8.790;2022-08-02T12:21:41;94796.78;;;37.36;24.76
68889;BME280;55930;47.412;8.790;2022-08-02T12:24:07;94791.34;;;36.69;27.90
68889;BME280;55930;47.412;8.790;2022-08-02T12:26:42;94792.53;;;34.27;30.31
68889;BME280;55930;47.412;8.790;2022-08-02T12:29:08;94789.72;;;34.95;29.65
68889;BME280;55930;47.412;8.790;2022-08-02T12:31:45;94786.25;;;33.60;33.77
68889;BME280;55930;47.412;8.790;2022-08-02T12:34:16;94788.59;;;34.18;32.91
68889;BME280;55930;47.412;8.790;2022-08-02T12:39:45;94785.06;;;36.35;27.79
68889;BME280;55930;47.412;8.790;2022-08-02T12:42:14;94783.09;;;34.86;29.72
68889;BME280;55930;47.412;8.790;2022-08-02T12:44:53;94782.91;;;35.25;29.71
68889;BME280;55930;47.412;8.790;2022-08-02T12:47:22;94782.56;;;37.43;28.15
68889;BME280;55930;47.412;8.790;2022-08-02T12:50:20;94778.53;;;37.64;27.78
68889;BME280;55930;47.412;8.790;2022-08-02T12:52:46;94764.91;;;33.21;29.31
68889;BME280;55930;47.412;8.790;2022-08-02T12:55:21;94772.34;;;35.96;28.22
68889;BME280;55930;47.412;8.790;2022-08-02T12:58:01;94771.44;;;37.59;25.33
68889;BME280;55930;47.412;8.790;2022-08-02T13:00:30;94759.03;;;33.91;29.45
68889;BME280;55930;47.412;8.790;2022-08-02T13:02:57;94764.63;;;32.55;34.04
68889;BME280;55930;47.412;8.790;2022-08-02T13:05:23;94763.19;;;31.72;34.77
68889;BME280;55930;47.412;8.790;2022-08-02T13:07:49;94761.16;;;34.61;30.12
68889;BME280;55930;47.412;8.790;2022-08-02T13:10:17;94754.13;;;35.60;28.72
68889;BME280;55930;47.412;8.790;2022-08-02T13:12:42;94749.19;;;36.86;25.37
68889;BME280;55930;47.412;8.790;2022-08-02T13:15:08;94744.63;;;37.83;26.17
68889;BME280;55930;47.412;8.790;2022-08-02T13:17:35;94746.41;;;38.34;23.82
68889;BME280;55930;47.412;8.790;2022-08-02T13:20:00;94743.25;;;37.65;24.61
68889;BME280;55930;47.412;8.790;2022-08-02T13:22:26;94740.22;;;38.36;24.40
68889;BME280;55930;47.412;8.790;2022-08-02T13:24:51;94739.78;;;38.63;22.89
68889;BME280;55930;47.412;8.790;2022-08-02T13:27:17;94742.44;;;37.62;23.88
68889;BME280;55930;47.412;8.790;2022-08-02T13:29:45;94740.09;;;37.01;23.24
68889;BME280;55930;47.412;8.790;2022-08-02T13:32:16;94743.16;;;37.63;24.09
68889;BME280;55930;47.412;8.790;2022-08-02T13:34:41;94734.53;;;38.51;23.66
68889;BME280;55930;47.412;8.790;2022-08-02T13:37:07;94735.50;;;38.60;25.37
68889;BME280;55930;47.412;8.790;2022-08-02T13:39:34;94723.63;;;38.57;23.83